Time;durP1;ratioP1;P1;durP2;ratioP2;P2;SDS_P1;SDS_P2;PMS_P1;PMS_P2;Temp;Humidity;BMP_temperature;BMP_pressure;BME280_temperature;BME280_humidity;BME280_pressure;Samples;Min_cycle;Max_cycle;Signal;HPM_P1;HPM_P2
2022/11/14 00:01:54;;;;;;;22.40;12.65;;;;;;;4.74;100.00;62489.31;4907533;29;20290;-73
2022/11/14 00:04:21;;;;;;;25.92;14.43;;;;;;;4.69;100.00;62484.16;4903285;29;20210;-74
2022/11/14 00:06:48;;;;;;;23.50;15.07;;;;;;;4.68;100.00;62478.09;4903269;29;20564;-74
2022/11/14 00:09:15;;;;;;;34.72;19.02;;;;;;;4.69;100.00;62478.63;4908309;29;20234;-74
2022/11/14 00:11:43;;;;;;;34.42;17.33;;;;;;;4.65;100.00;62480.06;4909961;29;20219;-74
2022/11/14 00:14:10;;;;;;;34.45;20.17;;;;;;;4.69;100.00;62483.66;4895046;29;20283;-74
2022/11/14 00:16:36;;;;;;;39.30;20.67;;;;;;;4.73;100.00;62490.28;4909011;29;20223;-74
2022/11/14 00:19:03;;;;;;;39.13;21.63;;;;;;;4.72;100.00;62481.69;4906874;29;20243;-74
2022/11/14 00:21:30;;;;;;;34.05;18.25;;;;;;;4.73;100.00;62485.75;4905853;29;20231;-73
2022/11/14 00:23:57;;;;;;;29.70;16.85;;;;;;;4.78;100.00;62487.84;4907811;29;20195;-75
2022/11/14 00:26:24;;;;;;;18.55;10.82;;;;;;;4.73;100.00;62488.28;4906316;29;20229;-75
2022/11/14 00:28:53;;;;;;;20.70;12.20;;;;;;;4.73;100.00;62485.25;4908464;29;20203;-73
2022/11/14 00:31:20;;;;;;;27.75;15.23;;;;;;;4.65;100.00;62482.06;4903493;29;20528;-73
2022/11/14 00:33:47;;;;;;;33.78;18.15;;;;;;;4.59;100.00;62468.31;4895978;29;20230;-73
2022/11/14 00:36:14;;;;;;;37.40;19.30;;;;;;;4.56;100.00;62470.78;4903944;29;20222;-74
2022/11/14 00:38:40;;;;;;;31.40;18.95;;;;;;;4.54;100.00;62463.16;4908289;29;20203;-74
2022/11/14 00:41:07;;;;;;;32.97;18.60;;;;;;;4.54;100.00;62471.25;4908532;29;20233;-74
2022/11/14 00:43:34;;;;;;;28.75;17.17;;;;;;;4.54;100.00;62463.69;4906678;29;20559;-74
2022/11/14 00:46:02;;;;;;;32.75;18.48;;;;;;;4.53;100.00;62459.63;4907283;29;20272;-73
2022/11/14 00:48:29;;;;;;;31.98;17.73;;;;;;;4.46;100.00;62459.97;4908565;29;20254;-73
2022/11/14 00:50:56;;;;;;;28.63;14.88;;;;;;;4.55;100.00;62469.75;4889844;29;20212;-74
2022/11/14 00:53:23;;;;;;;23.67;14.57;;;;;;;4.53;100.00;62467.19;4904883;29;20323;-74
2022/11/14 00:55:50;;;;;;;22.83;13.52;;;;;;;4.45;100.00;62456.44;4906307;29;20207;-73
2022/11/14 00:58:17;;;;;;;17.08;10.77;;;;;;;4.43;100.00;62454.88;4904773;29;20464;-74
2022/11/14 01:00:43;;;;;;;20.80;13.13;;;;;;;4.40;100.00;62451.78;4898018;29;20207;-74
2022/11/14 01:03:12;;;;;;;25.48;14.40;;;;;;;4.38;100.00;62451.75;4904437;29;20407;-73
2022/11/14 01:05:42;;;;;;;22.00;12.95;;;;;;;4.40;100.00;62449.25;4894642;29;20252;-73
2022/11/14 01:08:09;;;;;;;20.85;13.15;;;;;;;4.41;100.00;62452.31;4890242;29;20204;-74
2022/11/14 01:10:39;;;;;;;26.38;17.10;;;;;;;4.39;100.00;62450.75;4890254;29;20231;-74
2022/11/14 01:13:06;;;;;;;26.67;16.02;;;;;;;4.35;100.00;62449.16;4896700;29;20587;-73
2022/11/14 01:15:33;;;;;;;34.22;18.35;;;;;;;4.32;100.00;62446.09;4902709;29;20210;-74
2022/11/14 01:18:00;;;;;;;34.47;17.20;;;;;;;4.40;100.00;62453.81;4907533;29;20234;-73
2022/11/14 01:20:28;;;;;;;30.13;16.30;;;;;;;4.46;100.00;62457.97;4905680;29;20211;-73
2022/11/14 01:22:55;;;;;;;20.52;12.85;;;;;;;4.44;100.00;62457.91;4899496;29;20250;-74
2022/11/14 01:25:22;;;;;;;19.30;11.32;;;;;;;4.40;100.00;62449.25;4907850;29;20199;-74
2022/11/14 01:27:48;;;;;;;16.00;9.77;;;;;;;4.43;100.00;62456.88;4892308;29;20231;-73
2022/11/14 01:30:15;;;;;;;17.05;10.25;;;;;;;4.41;100.00;62452.31;4895594;29;20250;-73
2022/11/14 01:32:42;;;;;;;15.10;11.45;;;;;;;4.33;100.00;62446.59;4898136;29;20226;-74
2022/11/14 01:35:09;;;;;;;16.58;10.60;;;;;;;4.33;100.00;62444.09;4890481;29;20256;-74
2022/11/14 01:37:37;;;;;;;18.40;10.90;;;;;;;4.32;100.00;62443.56;4889213;29;20223;-74
2022/11/14 01:40:04;;;;;;;18.88;9.90;;;;;;;4.26;100.00;62434.84;4896908;29;20202;-74
2022/11/14 01:42:31;;;;;;;15.60;9.30;;;;;;;4.22;100.00;62435.28;4889490;29;20413;-74
2022/11/14 01:44:58;;;;;;;15.55;9.05;;;;;;;4.25;100.00;62440.88;4890785;29;20204;-73
2022/11/14 01:47:29;;;;;;;14.43;9.00;;;;;;;4.25;100.00;62438.88;4906887;29;20219;-73
2022/11/14 01:49:58;;;;;;;15.13;9.73;;;;;;;4.27;100.00;62438.41;4903874;29;20203;-74
2022/11/14 01:52:28;;;;;;;18.67;11.02;;;;;;;4.29;100.00;62443.00;4900395;29;20223;-74
2022/11/14 01:55:00;;;;;;;17.75;10.85;;;;;;;4.34;100.00;62447.63;4907196;29;20226;-74
2022/11/14 01:57:36;;;;;;;12.23;9.55;;;;;;;4.31;100.00;62442.53;4903404;29;20227;-73
2022/11/14 02:00:08;;;;;;;14.02;8.98;;;;;;;4.32;100.00;62448.59;4890956;29;20188;-74
2022/11/14 02:02:35;;;;;;;11.52;8.68;;;;;;;4.33;100.00;62449.63;4905662;29;20310;-74
2022/11/14 02:05:06;;;;;;;12.98;9.43;;;;;;;4.36;100.00;62450.22;4906684;29;20199;-75
2022/11/14 02:07:36;;;;;;;16.02;10.95;;;;;;;4.35;100.00;62446.13;4899543;29;20439;-74
2022/11/14 02:10:09;;;;;;;21.63;12.95;;;;;;;4.40;100.00;62449.25;4892645;29;20246;-74
2022/11/14 02:12:37;;;;;;;22.60;12.88;;;;;;;4.41;100.00;62454.81;4906418;29;20571;-72
2022/11/14 02:15:04;;;;;;;21.20;14.20;;;;;;;4.40;100.00;62451.78;4906397;29;20611;-74
2022/11/14 02:17:32;;;;;;;19.98;12.50;;;;;;;4.44;100.00;62455.91;4904279;29;20245;-75
2022/11/14 02:20:19;;;;;;;22.02;12.65;;;;;;;4.46;100.00;62457.97;4907111;29;20211;-73
2022/11/14 02:22:46;;;;;;;16.50;10.60;;;;;;;4.43;100.00;62457.41;4908118;29;20237;-73
2022/11/14 02:25:16;;;;;;;18.67;12.15;;;;;;;4.48;100.00;62460.03;4910058;29;20199;-74
2022/11/14 02:27:44;;;;;;;9.48;7.35;;;;;;;4.42;100.00;62451.31;4909780;29;20482;-74
2022/11/14 02:30:12;;;;;;;17.60;9.98;;;;;;;4.31;100.00;62444.53;4908719;29;20206;-74
2022/11/14 02:32:39;;;;;;;20.13;12.98;;;;;;;4.29;100.00;62442.47;4909556;29;20270;-74
2022/11/14 02:35:06;;;;;;;24.48;14.35;;;;;;;4.23;100.00;62431.78;4908324;29;20447;-74
2022/11/14 02:37:35;;;;;;;25.05;15.57;;;;;;;4.20;100.00;62428.16;4908936;29;20266;-74
2022/11/14 02:40:02;;;;;;;30.02;17.33;;;;;;;4.12;100.00;62425.00;4911959;29;20199;-73
2022/11/14 02:42:28;;;;;;;35.80;19.05;;;;;;;4.15;100.00;62426.06;4903903;29;20529;-74
2022/11/14 02:44:55;;;;;;;38.28;20.70;;;;;;;4.17;100.00;62425.09;4895494;29;20214;-74
2022/11/14 02:47:23;;;;;;;45.72;23.80;;;;;;;4.10;100.00;62423.44;4910440;29;20239;-74
2022/11/14 02:49:50;;;;;;;42.75;23.77;;;;;;;4.00;100.00;62408.13;4905775;29;20217;-74
2022/11/14 02:52:17;;;;;;;37.90;20.80;;;;;;;3.97;100.00;62405.03;4904997;29;20230;-73
2022/11/14 02:54:45;;;;;;;31.35;18.27;;;;;;;3.93;100.00;62402.91;4902812;29;20302;-74
2022/11/14 02:57:12;;;;;;;31.35;18.23;;;;;;;3.91;100.00;62398.34;4908856;29;20222;-72
2022/11/14 02:59:39;;;;;;;30.17;18.08;;;;;;;3.86;100.00;62393.72;4908291;29;20214;-73
2022/11/14 03:02:06;;;;;;;28.95;18.02;;;;;;;3.82;100.00;62392.13;4900539;29;20270;-73
2022/11/14 03:04:33;;;;;;;50.15;25.20;;;;;;;3.80;100.00;62392.56;4909863;29;20206;-73
2022/11/14 03:06:59;;;;;;;31.75;17.38;;;;;;;3.84;100.00;62399.22;4909551;29;20270;-74
2022/11/14 03:09:26;;;;;;;33.42;20.27;;;;;;;3.82;100.00;62389.09;4902049;29;20205;-72
2022/11/14 03:11:54;;;;;;;37.78;20.30;;;;;;;3.79;100.00;62389.03;4905453;29;20426;-73
2022/11/14 03:14:21;;;;;;;41.40;21.60;;;;;;;3.78;100.00;62392.53;4897310;29;20283;-74
2022/11/14 03:16:48;;;;;;;23.15;13.48;;;;;;;3.79;100.00;62391.03;4908197;29;20238;-74
2022/11/14 03:19:15;;;;;;;28.25;16.30;;;;;;;3.83;100.00;62393.13;4905273;29;20215;-74
2022/11/14 03:21:42;;;;;;;23.88;15.63;;;;;;;3.87;100.00;62394.75;4906972;29;20250;-74
2022/11/14 03:24:09;;;;;;;27.35;15.18;;;;;;;3.81;100.00;62390.56;4909469;29;20264;-73
2022/11/14 03:26:35;;;;;;;22.52;12.98;;;;;;;3.76;100.00;62382.91;4909538;29;20223;-74
2022/11/14 03:29:04;;;;;;;21.30;12.00;;;;;;;3.72;100.00;62383.84;4905177;29;20206;-74
2022/11/14 03:31:31;;;;;;;21.58;12.63;;;;;;;3.74;100.00;62383.38;4909286;29;20222;-73
2022/11/14 03:33:58;;;;;;;24.83;13.50;;;;;;;3.73;100.00;62382.34;4908362;29;20526;-73
2022/11/14 03:36:24;;;;;;;22.77;14.15;;;;;;;3.76;100.00;62385.97;4908749;29;20509;-73
2022/11/14 03:38:51;;;;;;;26.38;14.93;;;;;;;3.79;100.00;62386.53;4902746;29;20215;-74
2022/11/14 03:41:18;;;;;;;23.63;13.75;;;;;;;3.84;100.00;62393.66;4908020;29;20226;-74
2022/11/14 03:43:45;;;;;;;25.08;15.27;;;;;;;3.83;100.00;62390.63;4909308;29;20407;-73
2022/11/14 03:46:13;;;;;;;28.75;15.68;;;;;;;3.82;100.00;62392.13;4907124;29;20270;-74
2022/11/14 03:48:40;;;;;;;22.42;13.07;;;;;;;3.81;100.00;62388.59;4898496;29;20207;-73
2022/11/14 03:51:06;;;;;;;28.55;15.63;;;;;;;3.77;100.00;62386.97;4909032;29;20426;-73
2022/11/14 03:53:33;;;;;;;23.02;13.90;;;;;;;3.74;100.00;62388.41;4911244;29;20260;-73
2022/11/14 03:56:00;;;;;;;21.88;12.32;;;;;;;3.69;100.00;62381.28;4900487;29;20223;-73
2022/11/14 03:58:27;;;;;;;23.85;13.07;;;;;;;3.69;100.00;62375.72;4906081;29;20211;-73
2022/11/14 04:00:55;;;;;;;20.67;13.48;;;;;;;3.65;100.00;62376.63;4908919;29;20199;-73
2022/11/14 04:03:23;;;;;;;16.60;11.80;;;;;;;3.59;100.00;62362.94;4907764;29;20210;-73
2022/11/14 04:05:50;;;;;;;18.52;11.43;;;;;;;3.54;100.00;62361.31;4904465;29;20271;-74
2022/11/14 04:08:17;;;;;;;21.58;12.95;;;;;;;3.49;100.00;62356.19;4893848;29;20296;-73
2022/11/14 04:10:47;;;;;;;18.75;12.38;;;;;;;3.49;100.00;62361.22;4908101;29;20199;-74
2022/11/14 04:13:13;;;;;;;17.27;11.20;;;;;;;3.42;100.00;62351.50;4905296;29;20207;-74
2022/11/14 04:15:40;;;;;;;21.27;11.65;;;;;;;3.41;100.00;62347.44;4903076;29;20214;-73
2022/11/14 04:18:07;;;;;;;17.15;10.68;;;;;;;3.37;100.00;62348.34;4908463;29;20246;-74
2022/11/14 04:20:36;;;;;;;20.45;11.52;;;;;;;3.37;100.00;62346.34;4908130;29;20207;-74
2022/11/14 04:23:02;;;;;;;17.85;10.45;;;;;;;3.33;100.00;62342.25;4907027;29;20274;-74
2022/11/14 04:25:29;;;;;;;16.13;11.40;;;;;;;3.30;100.00;62336.66;4905519;29;20226;-73
2022/11/14 04:27:56;;;;;;;20.63;11.90;;;;;;;3.37;100.00;62345.84;4898060;29;20219;-73
2022/11/14 04:30:23;;;;;;;19.30;11.50;;;;;;;3.34;100.00;62345.78;4904141;29;20218;-73
2022/11/14 04:32:50;;;;;;;16.45;9.88;;;;;;;3.33;100.00;62342.25;4904184;29;20587;-74
2022/11/14 04:35:16;;;;;;;19.13;10.35;;;;;;;3.31;100.00;62332.13;4907294;29;20420;-73
2022/11/14 04:37:46;;;;;;;17.83;10.77;;;;;;;3.33;100.00;62339.22;4907732;29;20251;-74
2022/11/14 04:40:13;;;;;;;21.35;11.63;;;;;;;3.32;100.00;62343.22;4898100;29;20203;-72
2022/11/14 04:42:39;;;;;;;13.07;9.60;;;;;;;3.36;100.00;62342.31;4898787;29;20286;-73
2022/11/14 04:45:08;;;;;;;12.30;7.68;;;;;;;3.36;100.00;62347.84;4905616;29;20202;-74
2022/11/14 04:47:36;;;;;;;15.93;8.63;;;;;;;3.38;100.00;62349.41;4906688;29;20437;-75
2022/11/14 04:50:03;;;;;;;16.15;10.23;;;;;;;3.41;100.00;62350.47;4900777;29;20211;-74
2022/11/14 04:52:31;;;;;;;13.15;8.63;;;;;;;3.40;100.00;62349.44;4900651;29;20227;-74
2022/11/14 04:55:01;;;;;;;14.23;9.50;;;;;;;3.41;100.00;62347.97;4908584;29;20230;-75
2022/11/14 04:57:28;;;;;;;13.38;8.50;;;;;;;3.46;100.00;62352.59;4892586;29;20454;-75
2022/11/14 04:59:56;;;;;;;12.43;8.88;;;;;;;3.44;100.00;62356.06;4903017;29;20245;-76
2022/11/14 05:02:23;;;;;;;11.13;8.32;;;;;;;3.40;100.00;62346.91;4904062;29;20234;-75
2022/11/14 05:04:51;;;;;;;15.43;9.18;;;;;;;3.39;100.00;62348.41;4903670;29;20252;-75
2022/11/14 05:07:19;;;;;;;18.60;9.93;;;;;;;3.42;100.00;62354.00;4905681;29;20582;-76
2022/11/14 05:09:47;;;;;;;18.10;9.85;;;;;;;3.45;100.00;62354.56;4903457;29;20207;-75
2022/11/14 05:12:17;;;;;;;18.17;10.43;;;;;;;3.48;100.00;62359.69;4909677;29;20242;-75
2022/11/14 05:14:45;;;;;;;16.65;9.40;;;;;;;3.54;100.00;62360.81;4906964;29;20238;-75
2022/11/14 05:17:13;;;;;;;14.88;9.43;;;;;;;3.54;100.00;62363.84;4901293;29;20223;-74
2022/11/14 05:19:40;;;;;;;17.27;9.10;;;;;;;3.52;100.00;62363.78;4889129;29;20217;-74
2022/11/14 05:22:07;;;;;;;15.77;9.68;;;;;;;3.59;100.00;62367.97;4895696;29;20223;-74
2022/11/14 05:24:34;;;;;;;24.30;13.73;;;;;;;3.80;100.00;62392.56;4916863;29;20207;-73
2022/11/14 05:27:01;;;;;;;26.63;14.52;;;;;;;4.24;100.00;62439.84;4899971;29;20231;-74
2022/11/14 05:29:29;;;;;;;17.98;11.73;;;;;;;3.97;100.00;62404.53;4903641;29;20258;-73
2022/11/14 05:31:56;;;;;;;33.08;16.33;;;;;;;3.93;100.00;62400.91;4907612;29;20226;-74
2022/11/14 05:34:23;;;;;;;30.50;16.60;;;;;;;3.90;100.00;62402.34;4906061;29;20254;-74
2022/11/14 05:36:50;;;;;;;35.15;18.45;;;;;;;3.85;100.00;62395.19;4901711;29;20237;-74
2022/11/14 05:39:17;;;;;;;28.75;18.05;;;;;;;3.89;100.00;62401.31;4889837;29;20251;-75
2022/11/14 05:41:43;;;;;;;35.63;18.95;;;;;;;3.86;100.00;62400.75;4894067;29;20282;-74
2022/11/14 05:44:10;;;;;;;32.22;17.17;;;;;;;3.76;100.00;62385.44;4905262;29;20213;-74
2022/11/14 05:46:38;;;;;;;28.17;15.68;;;;;;;3.76;100.00;62385.44;4897770;29;20249;-74
2022/11/14 05:49:05;;;;;;;25.10;14.05;;;;;;;3.70;100.00;62381.78;4905802;29;20379;-73
2022/11/14 05:51:32;;;;;;;30.50;15.27;;;;;;;3.64;100.00;62370.59;4907826;29;20515;-74
2022/11/14 05:53:58;;;;;;;27.15;15.57;;;;;;;3.46;100.00;62350.06;4906465;29;20247;-73
2022/11/14 05:56:25;;;;;;;33.38;19.10;;;;;;;3.46;100.00;62355.09;4893933;29;20235;-74
2022/11/14 05:58:52;;;;;;;35.45;18.15;;;;;;;3.46;100.00;62352.59;4911595;29;20248;-74
2022/11/14 06:01:19;;;;;;;40.20;20.48;;;;;;;3.23;100.00;62333.97;4912129;29;20214;-74
2022/11/14 06:03:48;;;;;;;29.30;15.80;;;;;;;3.01;100.00;62311.34;4908075;29;20203;-74
2022/11/14 06:06:18;;;;;;;43.17;19.48;;;;;;;3.09;100.00;62317.06;4909868;29;20519;-73
2022/11/14 06:08:45;;;;;;;38.78;20.52;;;;;;;3.09;100.00;62320.09;4904639;29;20211;-74
2022/11/14 06:11:14;;;;;;;33.08;18.98;;;;;;;2.93;100.00;62300.63;4926587;29;20338;-74
2022/11/14 06:13:42;;;;;;;30.77;18.08;;;;;;;2.84;100.00;62291.38;4907748;29;20209;-73
2022/11/14 06:16:11;;;;;;;29.60;17.67;;;;;;;2.94;100.00;62306.66;4901910;29;20260;-74
2022/11/14 06:18:39;;;;;;;45.20;21.58;;;;;;;2.97;100.00;62304.75;4891922;29;20239;-75
2022/11/14 06:21:10;;;;;;;47.60;22.42;;;;;;;3.01;100.00;62309.34;4899386;29;20234;-75
2022/11/14 06:23:37;;;;;;;63.83;25.70;;;;;;;3.04;100.00;62314.94;4913973;29;20203;-74
2022/11/14 06:26:06;;;;;;;70.38;25.30;;;;;;;3.01;100.00;62309.34;4911583;29;20226;-75
2022/11/14 06:28:33;;;;;;;88.63;27.33;;;;;;;2.89;100.00;62301.53;4912233;29;20217;-74
2022/11/14 06:31:00;;;;;;;66.82;24.75;;;;;;;2.86;100.00;62296.47;4938523;29;20229;-74
2022/11/14 06:33:27;;;;;;;57.25;22.48;;;;;;;2.96;100.00;62301.19;4910514;29;20243;-75
2022/11/14 06:35:59;;;;;;;81.65;24.88;;;;;;;2.97;100.00;62302.72;4920287;29;20245;-74
2022/11/14 06:38:27;;;;;;;81.20;24.13;;;;;;;3.04;100.00;62309.91;4928077;29;20206;-74
2022/11/14 06:41:01;;;;;;;60.00;23.83;;;;;;;3.28;100.00;62334.06;4928396;29;20205;-73
2022/11/14 06:43:28;;;;;;;119.00;27.13;;;;;;;3.36;100.00;62345.34;4949229;29;20400;-74
2022/11/14 06:45:55;;;;;;;87.25;26.00;;;;;;;3.39;100.00;62348.41;4948226;29;20206;-75
2022/11/14 06:48:22;;;;;;;94.28;26.45;;;;;;;3.51;100.00;62360.75;4931220;29;20202;-74
2022/11/14 06:50:52;;;;;;;94.35;26.85;;;;;;;3.41;100.00;62353.00;4915970;29;20202;-75
2022/11/14 06:53:19;;;;;;;62.20;27.55;;;;;;;3.40;100.00;62348.91;4929340;29;20254;-74
2022/11/14 06:55:54;;;;;;;66.03;27.73;;;;;;;3.46;100.00;62353.09;4929303;29;20249;-74
2022/11/14 06:58:21;;;;;;;75.82;28.27;;;;;;;3.42;100.00;62348.47;4915500;29;20226;-74
2022/11/14 07:00:48;;;;;;;75.00;26.27;;;;;;;3.53;100.00;62362.81;4941058;29;20262;-75
2022/11/14 07:03:15;;;;;;;104.78;25.90;;;;;;;3.46;100.00;62358.13;4948678;29;20209;-75
2022/11/14 07:05:42;;;;;;;101.53;25.98;;;;;;;3.68;100.00;62377.72;4942468;29;21354;-74
2022/11/14 07:08:09;;;;;;;63.33;25.70;;;;;;;3.57;100.00;62366.41;4910281;29;20507;-74
2022/11/14 07:10:36;;;;;;;73.35;27.65;;;;;;;3.51;100.00;62360.75;4910132;29;20202;-74
2022/11/14 07:13:05;;;;;;;56.60;25.90;;;;;;;3.36;100.00;62342.31;4936647;29;20268;-74
2022/11/14 07:15:31;;;;;;;64.78;26.83;;;;;;;3.60;100.00;62374.00;4938589;29;20237;-74
2022/11/14 07:17:58;;;;;;;61.80;27.60;;;;;;;3.74;100.00;62381.38;4921605;29;20223;-74
2022/11/14 07:20:25;;;;;;;73.93;28.45;;;;;;;3.73;100.00;62382.34;4934801;29;20224;-74
2022/11/14 07:22:52;;;;;;;64.63;26.67;;;;;;;3.74;100.00;62378.34;4947756;29;20221;-74
2022/11/14 07:25:19;;;;;;;65.68;29.17;;;;;;;3.77;100.00;62383.94;4923644;29;20206;-73
2022/11/14 07:27:46;;;;;;;87.47;28.67;;;;;;;3.97;100.00;62409.56;4909849;29;20433;-75
2022/11/14 07:30:15;;;;;;;79.13;28.27;;;;;;;3.96;100.00;62409.03;4910869;29;20211;-74
2022/11/14 07:32:42;;;;;;;88.25;29.52;;;;;;;4.03;100.00;62413.22;4909556;29;20222;-75
2022/11/14 07:35:09;;;;;;;65.95;29.90;;;;;;;4.34;100.00;62442.59;4913790;29;20231;-75
2022/11/14 07:37:36;;;;;;;68.93;27.60;;;;;;;4.46;100.00;62460.50;4915594;29;20295;-75
2022/11/14 07:40:03;;;;;;;135.93;30.45;;;;;;;4.42;100.00;62456.38;4922436;29;20206;-74
2022/11/14 07:42:30;;;;;;;73.97;28.33;;;;;;;4.37;100.00;62443.66;4931667;29;20217;-75
2022/11/14 07:44:57;;;;;;;57.28;26.17;;;;;;;4.45;100.00;62453.91;4947815;29;20197;-74
2022/11/14 07:47:26;;;;;;;61.78;27.98;;;;;;;4.68;100.00;62477.56;4926363;29;20226;-74
2022/11/14 07:49:53;;;;;;;57.80;27.13;;;;;;;4.64;100.00;62471.44;4928375;29;20206;-74
2022/11/14 07:52:20;;;;;;;61.47;28.10;;;;;;;4.65;100.00;62479.53;4928329;29;20222;-74
2022/11/14 07:54:47;;;;;;;57.28;29.65;;;;;;;4.63;100.00;62477.47;4928783;29;20432;-74
2022/11/14 07:57:14;;;;;;;66.28;29.15;;;;;;;4.56;100.00;62462.69;4915996;29;20267;-73
2022/11/14 07:59:41;;;;;;;51.25;27.70;;;;;;;4.40;100.00;62448.75;4908865;29;20209;-73
2022/11/14 08:02:12;;;;;;;57.08;30.58;;;;;;;4.66;100.00;62480.56;4919542;29;20620;-74
2022/11/14 08:04:40;;;;;;;52.05;27.98;;;;;;;4.63;100.00;62474.94;4911110;29;20207;-74
2022/11/14 08:07:07;;;;;;;52.80;28.58;;;;;;;4.76;100.00;62487.81;4926783;29;20527;-74
2022/11/14 08:09:34;;;;;;;57.00;30.08;;;;;;;4.82;100.00;62499.03;4914799;29;20206;-74
2022/11/14 08:12:00;;;;;;;51.50;27.52;;;;;;;5.00;100.00;62512.53;4920652;29;20446;-75
2022/11/14 08:14:27;;;;;;;56.28;28.20;;;;;;;5.01;100.00;62513.56;4916161;29;20236;-74
2022/11/14 08:16:54;;;;;;;47.65;27.20;;;;;;;5.07;100.00;62520.25;4913064;29;20461;-74
2022/11/14 08:19:21;;;;;;;50.28;26.08;;;;;;;5.25;100.00;62538.25;4921024;29;20202;-74
2022/11/14 08:21:49;;;;;;;47.33;26.42;;;;;;;5.53;100.00;62569.63;4927938;29;20277;-74
2022/11/14 08:24:16;;;;;;;49.20;27.20;;;;;;;5.55;100.00;62564.66;4924502;29;20380;-73
2022/11/14 08:26:43;;;;;;;47.53;24.83;;;;;;;5.62;100.00;62576.38;4909224;29;20270;-74
2022/11/14 08:29:09;;;;;;;42.22;25.27;;;;;;;5.87;100.00;62599.63;4926631;29;20210;-74
2022/11/14 08:31:36;;;;;;;47.58;26.00;;;;;;;5.76;100.00;62593.34;4914365;29;20227;-74
2022/11/14 08:34:03;;;;;;;47.90;25.20;;;;;;;5.87;100.00;62604.69;4916170;29;20495;-73
2022/11/14 08:36:30;;;;;;;49.38;25.58;;;;;;;5.78;100.00;62593.38;4916908;29;20245;-74
2022/11/14 08:38:58;;;;;;;44.33;25.23;;;;;;;5.72;100.00;62589.75;4916615;29;20228;-75
2022/11/14 08:41:25;;;;;;;41.85;25.25;;;;;;;5.41;100.00;62552.75;4942835;29;20257;-74
2022/11/14 08:43:52;;;;;;;47.28;24.27;;;;;;;5.48;100.00;62564.50;4933008;29;20551;-74
2022/11/14 08:46:19;;;;;;;48.90;25.55;;;;;;;5.41;100.00;62554.75;4909235;29;20227;-74
2022/11/14 08:48:45;;;;;;;47.65;24.50;;;;;;;5.34;100.00;62550.06;4911508;29;20199;-73
2022/11/14 08:51:12;;;;;;;50.72;26.02;;;;;;;5.53;100.00;62564.59;4911103;29;20241;-74
2022/11/14 08:53:39;;;;;;;47.67;26.45;;;;;;;5.62;100.00;62573.88;4919835;29;20206;-74
2022/11/14 08:56:09;;;;;;;46.78;27.13;;;;;;;5.83;100.00;62598.06;4928620;29;20241;-75
2022/11/14 08:58:36;;;;;;;47.42;27.83;;;;;;;6.03;100.00;62618.66;4946378;29;20193;-73
2022/11/14 09:01:05;;;;;;;48.08;26.63;;;;;;;6.06;100.00;62618.72;4928881;29;20529;-74
2022/11/14 09:03:32;;;;;;;47.95;25.20;;;;;;;5.95;100.00;62612.44;4912904;29;20503;-74
2022/11/14 09:06:00;;;;;;;45.58;25.75;;;;;;;5.95;100.00;62612.94;4926929;29;20403;-75
2022/11/14 09:08:27;;;;;;;50.30;25.70;;;;;;;6.10;100.00;62625.34;4927328;29;20273;-75
2022/11/14 09:10:54;;;;;;;42.40;24.80;;;;;;;5.99;100.00;62611.50;4915684;29;20365;-74
2022/11/14 09:13:22;;;;;;;40.33;23.77;;;;;;;5.92;100.00;62609.34;4908372;29;20238;-74
2022/11/14 09:15:49;;;;;;;49.38;25.67;;;;;;;6.03;100.00;62613.59;4936807;29;20272;-76
2022/11/14 09:18:16;;;;;;;51.42;24.85;;;;;;;6.18;100.00;62631.09;4945863;29;20205;-75
2022/11/14 09:20:43;;;;;;;42.78;24.08;;;;;;;6.16;100.00;62632.06;4911230;29;20212;-74
2022/11/14 09:23:10;;;;;;;37.42;23.50;;;;;;;6.37;100.00;62655.72;4908175;29;20199;-75
2022/11/14 09:25:37;;;;;;;39.88;22.33;;;;;;;6.40;100.00;62656.28;4908279;29;20225;-74
2022/11/14 09:28:05;;;;;;;41.97;22.85;;;;;;;6.52;100.00;62671.19;4922791;29;20203;-75
2022/11/14 09:30:35;;;;;;;41.35;23.55;;;;;;;6.64;100.00;62684.06;4918525;29;20214;-74
2022/11/14 09:33:03;;;;;;;40.90;24.52;;;;;;;6.74;100.00;62691.88;4930180;29;20460;-75
2022/11/14 09:35:31;;;;;;;43.72;24.70;;;;;;;7.04;100.00;62727.34;4929237;29;20241;-74
2022/11/14 09:38:01;;;;;;;37.25;21.55;;;;;;;7.18;100.00;62736.72;4924746;29;20226;-74
2022/11/14 09:40:28;;;;;;;37.83;22.65;;;;;;;7.10;100.00;62728.47;4930462;29;20206;-74
2022/11/14 09:43:21;;;;;;;44.35;23.55;;;;;;;6.84;100.00;62701.66;4936397;29;20214;-74
2022/11/14 09:45:52;;;;;;;35.95;21.52;;;;;;;6.77;100.00;62694.97;4926527;29;20210;-73
2022/11/14 09:48:24;;;;;;;41.95;23.55;;;;;;;6.71;100.00;62690.78;4924539;29;20197;-75
2022/11/14 09:51:02;;;;;;;45.45;23.50;;;;;;;6.76;100.00;62693.94;4948223;29;20268;-74
2022/11/14 09:53:34;;;;;;;41.22;22.85;;;;;;;7.02;100.00;62722.75;4921493;29;20532;-74
2022/11/14 09:56:01;;;;;;;39.53;23.67;;;;;;;7.22;100.00;62743.41;4930079;29;20313;-74
2022/11/14 09:58:28;;;;;;;41.55;23.77;;;;;;;7.37;100.00;62758.38;4937968;29;20205;-74
2022/11/14 10:01:03;;;;;;;34.92;21.80;;;;;;;7.54;100.00;62776.41;4928318;29;20528;-75
2022/11/14 10:03:43;;;;;;;41.63;23.50;;;;;;;7.71;100.00;62788.91;4922094;29;20225;-73
2022/11/14 10:06:28;;;;;;;40.65;24.10;;;;;;;7.69;100.00;62786.31;4916935;29;20258;-74
2022/11/14 10:09:09;;;;;;;48.72;25.85;;;;;;;8.01;100.00;62819.34;4949212;29;20188;-75
2022/11/14 10:11:43;;;;;;;34.95;22.17;;;;;;;8.19;100.00;62845.56;4947378;29;20249;-73
2022/11/14 10:14:35;;;;;;;38.83;22.98;;;;;;;8.25;100.00;62846.69;4931453;29;20261;-73
2022/11/14 10:17:21;;;;;;;40.42;22.15;;;;;;;8.59;100.00;62881.31;4927624;29;20407;-75
2022/11/14 10:19:59;;;;;;;39.92;23.88;;;;;;;8.57;100.00;62881.78;4930246;29;20194;-74
2022/11/14 10:22:43;;;;;;;37.45;22.33;;;;;;;8.54;100.00;62878.69;4916440;29;20230;-74
2022/11/14 10:25:24;;;;;;;45.28;24.50;;;;;;;8.42;100.00;62868.81;4911114;29;20198;-73
2022/11/14 10:28:18;;;;;;;44.03;23.77;;;;;;;8.59;100.00;62878.75;4925312;29;20249;-74
2022/11/14 10:30:51;;;;;;;36.13;22.17;;;;;;;8.40;100.00;62862.19;4933713;29;20397;-75
2022/11/14 10:33:33;;;;;;;35.38;22.70;;;;;;;8.80;100.00;62903.50;4950326;29;20189;-74
2022/11/14 10:36:10;;;;;;;36.22;23.02;;;;;;;8.86;100.00;62904.13;4949051;29;20244;-74
2022/11/14 10:38:42;;;;;;;45.22;24.13;;;;;;;8.91;100.00;62914.88;4918526;29;20230;-74
2022/11/14 10:41:10;;;;;;;40.75;24.42;;;;;;;9.12;100.00;62936.59;4947854;29;20225;-75
2022/11/14 10:43:43;;;;;;;43.03;22.83;;;;;;;8.95;100.00;62919.03;4933694;29;20206;-74
2022/11/14 10:46:14;;;;;;;37.15;23.98;;;;;;;8.99;100.00;62923.16;4929233;29;20222;-75
2022/11/14 10:48:45;;;;;;;41.35;22.38;;;;;;;9.24;100.00;62948.47;4929189;29;20206;-75
2022/11/14 10:51:19;;;;;;;36.90;23.08;;;;;;;9.32;100.00;62959.81;4939744;29;20285;-75
2022/11/14 10:53:53;;;;;;;37.05;22.75;;;;;;;9.48;100.00;62975.81;4946395;29;20190;-75
2022/11/14 10:56:20;;;;;;;43.53;24.42;;;;;;;9.55;100.00;62980.00;4910691;29;20523;-74
2022/11/14 10:58:46;;;;;;;38.67;23.63;;;;;;;9.66;100.00;62991.38;4910792;29;20239;-75
2022/11/14 11:01:33;;;;;;;40.78;23.98;;;;;;;9.92;100.00;63023.38;4928853;29;20452;-75
2022/11/14 11:04:12;;;;;;;39.10;22.50;;;;;;;9.98;100.00;63027.53;4927759;29;20495;-75
2022/11/14 11:06:39;;;;;;;40.35;22.63;;;;;;;9.89;99.99;63015.16;4909956;29;20241;-75
2022/11/14 11:11:57;;;;;;;39.38;24.23;;;;;;;10.12;99.82;63039.50;4936971;29;20248;-76
2022/11/14 11:14:24;;;;;;;43.10;22.80;;;;;;;10.17;98.70;63047.22;4936658;29;20557;-75
2022/11/14 11:17:08;;;;;;;43.35;23.83;;;;;;;10.29;98.80;63054.03;4941991;29;20236;-75
2022/11/14 11:19:36;;;;;;;38.88;24.70;;;;;;;10.22;98.02;63052.38;4929860;29;20194;-75
2022/11/14 11:22:04;;;;;;;40.00;24.58;;;;;;;10.42;97.96;63070.53;4918962;29;20386;-76
2022/11/14 11:24:32;;;;;;;41.95;22.88;;;;;;;10.47;96.81;63078.25;4929470;29;20206;-76
2022/11/14 11:27:22;;;;;;;43.10;24.33;;;;;;;10.72;96.60;63103.63;4929398;29;20222;-75